createdAt,value
2019-04-21T00:00:31.869Z,14.10
2019-04-21T00:03:07.356Z,15.43
2019-04-21T00:05:53.301Z,14.87
2019-04-21T00:08:32.758Z,15.03
2019-04-21T00:10:59.365Z,15.07
2019-04-21T00:13:17.855Z,12.30
2019-04-21T00:15:46.373Z,20.90
2019-04-21T00:18:21.218Z,12.80
2019-04-21T00:20:55.201Z,12.83
2019-04-21T00:23:47.334Z,17.47
2019-04-21T00:26:03.938Z,13.00
2019-04-21T00:28:53.412Z,14.00
2019-04-21T00:31:12.633Z,15.57
2019-04-21T00:33:32.476Z,13.90
2019-04-21T00:36:05.040Z,16.73
2019-04-21T00:39:03.031Z,13.60
2019-04-21T00:41:24.946Z,17.57
2019-04-21T00:43:47.239Z,13.57
2019-04-21T00:46:10.822Z,14.77
2019-04-21T00:48:53.549Z,15.30
2019-04-21T00:51:33.239Z,15.33
2019-04-21T00:54:13.524Z,14.00
2019-04-21T00:56:34.439Z,15.33
2019-04-21T00:59:06.795Z,12.40
2019-04-21T01:01:39.380Z,14.97
2019-04-21T01:04:11.321Z,14.30
2019-04-21T01:06:43.498Z,14.97
2019-04-21T01:09:08.409Z,14.57
2019-04-21T01:11:47.473Z,19.83
2019-04-21T01:14:12.008Z,15.30
2019-04-21T01:16:49.804Z,14.03
2019-04-21T01:19:13.912Z,13.10
2019-04-21T01:21:23.697Z,15.50
2019-04-21T01:23:56.236Z,13.87
2019-04-21T01:26:32.535Z,16.60
2019-04-21T01:29:13.231Z,15.30
2019-04-21T01:31:42.244Z,17.17
2019-04-21T01:34:14.972Z,15.00
2019-04-21T01:36:46.156Z,13.40
2019-04-21T01:39:20.179Z,15.07
2019-04-21T01:41:55.408Z,15.70
2019-04-21T01:44:34.349Z,16.07
2019-04-21T01:46:51.985Z,17.40
2019-04-21T01:49:16.069Z,15.20
2019-04-21T01:52:22.217Z,15.60
2019-04-21T01:54:55.538Z,16.47
2019-04-21T01:57:31.709Z,14.30
2019-04-21T01:59:55.281Z,15.07
2019-04-21T02:02:37.919Z,14.47
2019-04-21T02:05:10.516Z,15.93
2019-04-21T02:07:40.559Z,17.13
2019-04-21T02:10:11.206Z,19.17
2019-04-21T02:12:41.058Z,14.50
2019-04-21T02:15:21.897Z,15.47
2019-04-21T02:17:43.433Z,18.60
2019-04-21T02:20:02.745Z,18.63
2019-04-21T02:23:00.429Z,15.40
2019-04-21T02:25:35.286Z,16.30
2019-04-21T02:27:51.021Z,18.10
2019-04-21T02:30:29.702Z,16.93
2019-04-21T02:33:04.009Z,13.67
2019-04-21T02:35:40.272Z,15.60
2019-04-21T02:38:01.284Z,15.90
2019-04-21T02:40:38.848Z,16.30
2019-04-21T02:43:07.096Z,14.27
2019-04-21T02:45:34.238Z,13.07
2019-04-21T02:48:17.171Z,20.33
2019-04-21T02:50:45.130Z,17.90
2019-04-21T02:53:16.419Z,17.20
2019-04-21T02:55:39.693Z,13.33
2019-04-21T02:58:16.032Z,18.40
2019-04-21T03:00:54.973Z,15.63
2019-04-21T03:03:29.344Z,15.30
2019-04-21T03:08:44.308Z,16.10
2019-04-21T03:11:09.303Z,14.20
2019-04-21T03:13:42.065Z,17.10
2019-04-21T03:23:46.834Z,16.57
2019-04-21T03:26:20.358Z,16.67
2019-04-21T03:28:45.881Z,15.27
2019-04-21T03:31:57.573Z,15.13
2019-04-21T03:36:39.867Z,15.90
2019-04-21T03:38:40.559Z,14.90
2019-04-21T03:41:22.217Z,18.20
2019-04-21T03:43:50.283Z,15.93
2019-04-21T03:46:27.402Z,15.70
2019-04-21T03:48:51.718Z,15.83
2019-04-21T03:51:43.930Z,14.67
2019-04-21T03:53:54.290Z,15.60
2019-04-21T03:56:48.594Z,14.97
2019-04-21T03:58:59.848Z,15.40
2019-04-21T04:01:32.779Z,17.03
2019-04-21T04:04:24.499Z,17.27
2019-04-21T04:09:43.414Z,18.80
2019-04-21T04:14:23.390Z,16.50
2019-04-21T04:17:04.739Z,16.13
2019-04-21T04:19:29.439Z,15.77
2019-04-21T04:22:09.217Z,16.80
2019-04-21T04:24:33.973Z,16.10
2019-04-21T04:26:58.906Z,15.17
2019-04-21T04:29:26.279Z,14.67
2019-04-21T04:32:14.610Z,13.27
2019-04-21T04:34:49.823Z,17.57
2019-04-21T04:49:49.980Z,16.27
2019-04-21T04:52:31.128Z,15.67
2019-04-21T05:02:37.610Z,16.27
2019-04-21T05:04:54.906Z,21.53
2019-04-21T05:07:25.153Z,14.10
2019-04-21T05:09:59.840Z,19.27
2019-04-21T05:12:15.979Z,19.43
2019-04-21T05:14:54.732Z,15.10
2019-04-21T05:17:28.714Z,15.87
2019-04-21T05:20:10.405Z,16.30
2019-04-21T05:22:22.220Z,15.77
2019-04-21T05:24:44.047Z,18.80
2019-04-21T05:27:29.588Z,15.73
2019-04-21T05:30:17.300Z,18.37
2019-04-21T05:33:00.054Z,15.33
2019-04-21T05:35:45.281Z,14.23
2019-04-21T05:38:33.373Z,18.40
2019-04-21T05:40:55.187Z,14.87
2019-04-21T05:43:39.196Z,23.90
2019-04-21T05:46:04.714Z,14.53
2019-04-21T05:48:43.709Z,17.33
2019-04-21T05:51:08.026Z,14.97
2019-04-21T05:53:42.700Z,16.90
2019-04-21T05:56:16.030Z,17.80
2019-04-21T05:58:46.260Z,15.20
2019-04-21T06:01:23.832Z,15.10
2019-04-21T06:03:49.255Z,18.83
2019-04-21T06:06:28.421Z,17.10
2019-04-21T06:08:49.619Z,15.53
2019-04-21T06:11:36.224Z,17.27
2019-04-21T06:16:32.782Z,14.47
2019-04-21T06:19:01.024Z,21.00
2019-04-21T06:21:27.962Z,17.13
2019-04-21T06:23:57.809Z,15.10
2019-04-21T06:26:51.618Z,13.77
2019-04-21T06:28:56.877Z,15.50
2019-04-21T06:34:03.545Z,13.80
2019-04-21T06:36:42.299Z,14.00
2019-04-21T06:41:53.198Z,16.37
2019-04-21T06:44:13.003Z,14.90
2019-04-21T06:46:45.900Z,13.90
2019-04-21T06:49:08.064Z,16.60
2019-04-21T06:51:43.647Z,16.07
2019-04-21T06:54:22.021Z,18.00
2019-04-21T06:56:48.354Z,14.03
2019-04-21T06:59:15.108Z,13.50
2019-04-21T07:01:52.726Z,13.10
2019-04-21T07:11:52.639Z,14.83
2019-04-21T07:16:59.538Z,14.03
2019-04-21T07:21:55.619Z,12.80
2019-04-21T07:24:32.041Z,14.33
2019-04-21T07:27:03.492Z,11.90
2019-04-21T07:29:34.848Z,12.40
2019-04-21T07:32:04.376Z,17.13
2019-04-21T07:34:38.445Z,13.30
2019-04-21T07:37:17.374Z,13.73
2019-04-21T07:39:35.313Z,13.37
2019-04-21T07:42:04.884Z,16.77
2019-04-21T07:44:32.992Z,11.77
2019-04-21T07:47:03.136Z,12.50
2019-04-21T07:49:47.902Z,14.43
2019-04-21T07:52:28.633Z,13.47
2019-04-21T07:55:07.743Z,12.70
2019-04-21T07:57:28.077Z,13.47
2019-04-21T08:02:29.377Z,11.70
2019-04-21T08:05:07.535Z,13.87
2019-04-21T08:07:42.130Z,12.90
2019-04-21T08:10:07.833Z,14.90
2019-04-21T08:12:33.709Z,15.00
2019-04-21T08:15:15.720Z,11.47
2019-04-21T08:17:36.723Z,12.03
2019-04-21T08:20:11.350Z,12.00
2019-04-21T08:25:09.224Z,12.27
2019-04-21T08:27:47.711Z,10.57
2019-04-21T08:30:14.339Z,13.90
2019-04-21T08:32:51.765Z,13.37
2019-04-21T08:37:46.369Z,12.10
2019-04-21T08:42:52.094Z,12.00
2019-04-21T08:45:25.833Z,12.33
2019-04-21T08:47:53.168Z,12.13
2019-04-21T08:50:22.650Z,11.10
2019-04-21T08:52:58.367Z,11.70
2019-04-21T08:55:39.717Z,15.30
2019-04-21T08:58:35.445Z,10.83
2019-04-21T09:01:00.899Z,14.17
2019-04-21T09:03:49.574Z,10.73
2019-04-21T09:06:22.228Z,9.80
2019-04-21T09:08:52.279Z,10.90
2019-04-21T09:11:16.232Z,11.13
2019-04-21T09:13:48.911Z,11.10
2019-04-21T09:16:15.384Z,10.27
2019-04-21T09:18:48.715Z,10.47
2019-04-21T09:21:26.911Z,10.20
2019-04-21T09:23:50.936Z,11.30
2019-04-21T09:26:26.274Z,10.43
2019-04-21T09:28:48.346Z,10.20
2019-04-21T09:31:08.997Z,11.67
2019-04-21T09:33:46.725Z,11.37
2019-04-21T09:36:15.471Z,9.60
2019-04-21T09:38:43.630Z,9.97
2019-04-21T09:41:16.226Z,12.03
2019-04-21T09:43:50.130Z,12.63
2019-04-21T09:46:16.038Z,9.20
2019-04-21T09:48:53.619Z,10.13
2019-04-21T09:51:17.799Z,9.43
2019-04-21T09:53:54.606Z,10.20
2019-04-21T09:56:30.269Z,8.90
2019-04-21T09:58:52.198Z,9.87
2019-04-21T10:01:28.681Z,10.87
2019-04-21T10:03:56.450Z,9.43
2019-04-21T10:06:23.785Z,9.93
2019-04-21T10:09:00.938Z,8.40
2019-04-21T10:11:24.622Z,8.17
2019-04-21T10:13:55.079Z,9.07
2019-04-21T10:16:42.839Z,10.63
2019-04-21T10:19:13.211Z,8.57
2019-04-21T10:21:42.596Z,8.90
2019-04-21T10:24:12.545Z,9.83
2019-04-21T10:26:42.973Z,8.87
2019-04-21T10:29:17.930Z,9.80
2019-04-21T10:31:44.849Z,8.40
2019-04-21T10:34:14.490Z,8.83
2019-04-21T10:36:44.820Z,11.70
2019-04-21T10:39:15.605Z,8.90
2019-04-21T10:41:45.783Z,8.83
2019-04-21T10:44:15.201Z,8.63
2019-04-21T10:46:47.366Z,9.13
2019-04-21T10:49:16.875Z,8.57
2019-04-21T10:51:46.768Z,8.50
2019-04-21T10:54:17.918Z,8.37
2019-04-21T10:56:49.122Z,7.87
2019-04-21T10:59:18.665Z,9.10
2019-04-21T11:01:49.185Z,10.60
2019-04-21T11:04:27.785Z,9.40
2019-04-21T11:06:57.056Z,8.00
2019-04-21T11:09:26.420Z,8.33
2019-04-21T11:11:55.815Z,7.80
2019-04-21T11:14:27.223Z,9.07
2019-04-21T11:16:56.703Z,7.93
2019-04-21T11:19:27.035Z,7.90
2019-04-21T11:21:56.844Z,7.47
2019-04-21T11:24:27.142Z,7.50
2019-04-21T11:26:56.457Z,12.27
2019-04-21T11:29:26.379Z,8.03
2019-04-21T11:31:56.810Z,7.90
2019-04-21T11:34:27.291Z,7.70
2019-04-21T11:36:56.669Z,8.10
2019-04-21T11:39:37.536Z,7.83
2019-04-21T11:41:59.650Z,7.47
2019-04-21T11:44:29.123Z,7.90
2019-04-21T11:46:58.721Z,7.37
2019-04-21T11:49:31.098Z,8.23
2019-04-21T11:51:58.985Z,11.23
2019-04-21T11:54:28.821Z,10.73
2019-04-21T11:56:59.804Z,8.30
2019-04-21T11:59:29.971Z,8.00
2019-04-21T12:01:59.366Z,10.00
2019-04-21T12:04:29.549Z,7.60
2019-04-21T12:06:59.846Z,8.70
2019-04-21T12:09:33.345Z,7.30
2019-04-21T12:12:03.362Z,7.87
2019-04-21T12:14:34.099Z,7.73
2019-04-21T12:17:03.497Z,7.30
2019-04-21T12:19:32.770Z,7.30
2019-04-21T12:22:11.012Z,9.23
2019-04-21T12:24:36.249Z,8.10
2019-04-21T12:27:05.852Z,7.30
2019-04-21T12:29:36.141Z,7.20
2019-04-21T12:32:10.825Z,8.30
2019-04-21T12:34:41.739Z,7.73
2019-04-21T12:37:11.173Z,8.17
2019-04-21T12:39:40.919Z,8.80
2019-04-21T12:42:10.443Z,7.33
2019-04-21T12:44:41.252Z,7.80
2019-04-21T12:47:11.744Z,8.20
2019-04-21T12:49:41.492Z,7.70
2019-04-21T12:52:11.458Z,9.00
2019-04-21T12:54:41.810Z,8.30
2019-04-21T12:57:11.765Z,7.90
2019-04-21T12:59:42.548Z,7.50
2019-04-21T13:02:13.614Z,8.80
2019-04-21T13:04:43.954Z,8.10
2019-04-21T13:07:15.401Z,9.30
2019-04-21T13:09:46.247Z,7.47
2019-04-21T13:12:17.193Z,7.80
2019-04-21T13:14:47.477Z,6.83
2019-04-21T13:17:17.296Z,7.97
2019-04-21T13:19:47.302Z,7.37
2019-04-21T13:22:18.122Z,7.07
2019-04-21T13:24:47.809Z,8.73
2019-04-21T13:27:18.321Z,6.87
2019-04-21T13:29:48.289Z,7.23
2019-04-21T13:32:18.487Z,7.43
2019-04-21T13:34:47.905Z,7.07
2019-04-21T13:37:17.400Z,7.17
2019-04-21T13:40:18.286Z,7.83
2019-04-21T13:42:31.410Z,7.33
2019-04-21T13:44:57.832Z,7.60
2019-04-21T13:47:26.286Z,7.50
2019-04-21T13:49:57.848Z,6.60
2019-04-21T13:52:26.842Z,7.40
2019-04-21T13:54:56.161Z,8.20
2019-04-21T13:57:26.346Z,6.40
2019-04-21T13:59:57.103Z,7.20
2019-04-21T14:02:26.843Z,7.00
2019-04-21T14:04:56.110Z,6.97
2019-04-21T14:07:26.144Z,6.77
2019-04-21T14:10:00.786Z,6.97
2019-04-21T14:12:27.526Z,7.90
2019-04-21T14:14:57.075Z,6.73
2019-04-21T14:17:26.648Z,7.30
2019-04-21T14:19:57.242Z,7.57
2019-04-21T14:22:26.822Z,6.50
2019-04-21T14:24:56.365Z,6.40
2019-04-21T14:27:25.972Z,10.60
2019-04-21T14:29:55.586Z,7.00
2019-04-21T14:32:26.432Z,6.90
2019-04-21T14:34:56.634Z,7.00
2019-04-21T14:37:26.568Z,6.40
2019-04-21T14:40:03.992Z,7.63
2019-04-21T14:42:27.041Z,6.83
2019-04-21T14:44:56.851Z,7.30
2019-04-21T14:47:46.397Z,8.03
2019-04-21T14:50:24.437Z,7.53
2019-04-21T14:53:11.760Z,8.23
2019-04-21T14:55:43.466Z,7.23
2019-04-21T14:58:13.050Z,6.93
2019-04-21T15:00:53.005Z,9.03
2019-04-21T15:03:23.650Z,7.03
2019-04-21T15:05:53.493Z,6.80
2019-04-21T15:08:23.084Z,6.33
2019-04-21T15:10:52.796Z,7.23
2019-04-21T15:13:22.088Z,7.43
2019-04-21T15:15:52.197Z,7.30
2019-04-21T15:18:22.888Z,7.30
2019-04-21T15:20:53.136Z,6.23
2019-04-21T15:23:25.232Z,10.20
2019-04-21T15:25:54.292Z,7.77
2019-04-21T15:28:23.870Z,7.00
2019-04-21T15:30:54.169Z,6.70
2019-04-21T15:33:24.520Z,7.20
2019-04-21T15:35:55.280Z,6.67
2019-04-21T15:38:25.503Z,6.87
2019-04-21T15:40:58.054Z,5.80
2019-04-21T15:43:26.579Z,6.93
2019-04-21T15:45:57.098Z,7.10
2019-04-21T15:48:26.771Z,6.83
2019-04-21T15:50:56.775Z,7.60
2019-04-21T15:53:31.995Z,6.60
2019-04-21T15:56:02.924Z,7.00
2019-04-21T15:58:40.905Z,7.17
2019-04-21T16:01:14.806Z,8.80
2019-04-21T16:03:44.838Z,8.80
2019-04-21T16:06:14.429Z,7.13
2019-04-21T16:08:47.479Z,7.10
2019-04-21T16:11:15.763Z,7.40
2019-04-21T16:13:45.878Z,6.73
2019-04-21T16:16:16.617Z,7.20
2019-04-21T16:18:46.260Z,6.80
2019-04-21T16:21:15.976Z,7.03
2019-04-21T16:23:46.633Z,7.40
2019-04-21T16:26:17.011Z,7.53
2019-04-21T16:28:46.930Z,7.53
2019-04-21T16:31:16.443Z,7.10
2019-04-21T16:33:47.048Z,6.30
2019-04-21T16:36:17.116Z,6.20
2019-04-21T16:38:49.204Z,7.47
2019-04-21T16:41:20.306Z,6.73
2019-04-21T16:43:51.275Z,7.53
2019-04-21T16:46:21.114Z,6.43
2019-04-21T16:48:51.676Z,7.93
2019-04-21T16:51:22.263Z,6.73
2019-04-21T16:53:55.752Z,7.77
2019-04-21T16:56:35.871Z,5.53
2019-04-21T16:59:12.475Z,7.90
2019-04-21T17:01:42.732Z,6.90
2019-04-21T17:04:12.801Z,6.50
2019-04-21T17:06:42.926Z,6.60
2019-04-21T17:09:12.689Z,9.83
2019-04-21T17:11:44.162Z,9.80
2019-04-21T17:14:32.939Z,7.50
2019-04-21T17:17:14.185Z,7.87
2019-04-21T17:19:25.036Z,26.90
2019-04-21T17:21:47.501Z,8.73
2019-04-21T17:24:17.126Z,11.60
2019-04-21T17:26:47.786Z,12.50
2019-04-21T17:29:18.751Z,10.00
2019-04-21T17:31:49.700Z,12.07
2019-04-21T17:34:22.957Z,8.10
2019-04-21T17:36:50.964Z,10.63
2019-04-21T17:39:20.861Z,9.20
2019-04-21T17:42:05.331Z,6.53
2019-04-21T17:44:21.438Z,7.47
2019-04-21T17:46:56.295Z,7.10
2019-04-21T17:49:23.242Z,7.33
2019-04-21T17:52:11.738Z,12.93
2019-04-21T17:54:48.409Z,10.23
2019-04-21T17:57:36.928Z,10.70
2019-04-21T18:00:10.768Z,18.33
2019-04-21T18:02:46.063Z,11.30
2019-04-21T18:05:15.217Z,9.37
2019-04-21T18:07:46.733Z,10.33
2019-04-21T18:10:07.788Z,10.03
2019-04-21T18:12:36.473Z,9.97
2019-04-21T18:15:14.705Z,9.60
2019-04-21T18:17:24.905Z,8.90
2019-04-21T18:19:56.757Z,7.90
2019-04-21T18:22:46.908Z,12.03
2019-04-21T18:25:27.954Z,9.30
2019-04-21T18:27:48.288Z,8.27
2019-04-21T18:30:40.403Z,8.17
2019-04-21T18:33:15.057Z,8.10
2019-04-21T18:36:02.416Z,13.17
2019-04-21T18:39:04.088Z,9.00
2019-04-21T18:41:21.692Z,7.30
2019-04-21T18:44:30.309Z,8.90
2019-04-21T18:46:55.771Z,7.40
2019-04-21T18:49:19.532Z,8.40
2019-04-21T18:52:00.809Z,11.73
2019-04-21T18:54:44.441Z,8.33
2019-04-21T18:57:09.266Z,11.70
2019-04-21T18:59:37.615Z,12.33
2019-04-21T19:02:07.956Z,12.10
2019-04-21T19:04:35.198Z,27.43
2019-04-21T19:07:18.136Z,18.00
2019-04-21T19:10:08.224Z,28.57
2019-04-21T19:12:34.041Z,14.37
2019-04-21T19:14:54.915Z,11.40
2019-04-21T19:20:10.420Z,17.17
2019-04-21T19:22:34.459Z,22.03
2019-04-21T19:25:16.691Z,9.53
2019-04-21T19:27:35.514Z,11.87
2019-04-21T19:32:33.250Z,7.90
2019-04-21T19:34:52.580Z,9.53
2019-04-21T19:37:24.397Z,9.40
2019-04-21T19:40:03.292Z,10.00
2019-04-21T19:42:34.082Z,8.63
2019-04-21T19:45:11.809Z,13.13
2019-04-21T19:47:47.369Z,9.20
2019-04-21T19:50:10.831Z,9.67
2019-04-21T19:52:38.431Z,11.50
2019-04-21T19:54:58.672Z,10.73
2019-04-21T19:57:29.172Z,11.10
2019-04-21T20:00:03.191Z,11.47
2019-04-21T20:02:30.281Z,11.73
2019-04-21T20:05:05.994Z,11.63
2019-04-21T20:07:49.785Z,14.73
2019-04-21T20:10:25.675Z,13.00
2019-04-21T20:12:49.888Z,16.97
2019-04-21T20:15:30.258Z,15.13
2019-04-21T20:17:54.075Z,22.90
2019-04-21T20:20:11.239Z,23.30
2019-04-21T20:22:44.985Z,28.60
2019-04-21T20:25:16.133Z,23.00
2019-04-21T20:27:52.923Z,29.70
2019-04-21T20:30:33.030Z,27.37
2019-04-21T20:33:05.644Z,28.43
2019-04-21T20:35:48.545Z,36.03
2019-04-21T20:38:04.792Z,33.27
2019-04-21T20:40:30.816Z,31.60
2019-04-21T20:43:13.465Z,28.13
2019-04-21T20:46:00.351Z,30.57
2019-04-21T20:47:59.951Z,30.33
2019-04-21T20:50:37.627Z,30.00
2019-04-21T20:53:14.682Z,29.00
2019-04-21T20:55:37.877Z,33.07
2019-04-21T20:58:07.886Z,28.90
2019-04-21T21:00:56.138Z,27.87
2019-04-21T21:03:20.467Z,27.57
2019-04-21T21:05:46.085Z,25.40
2019-04-21T21:08:22.991Z,21.07
2019-04-21T21:10:51.170Z,22.47
2019-04-21T21:13:33.414Z,27.17
2019-04-21T21:16:04.131Z,20.27
2019-04-21T21:18:52.021Z,20.60
2019-04-21T21:21:00.306Z,18.53
2019-04-21T21:23:26.128Z,17.57
2019-04-21T21:26:07.056Z,18.57
2019-04-21T21:28:26.713Z,17.10
2019-04-21T21:31:04.166Z,14.20
2019-04-21T21:33:35.567Z,11.43
2019-04-21T21:36:06.580Z,12.57
2019-04-21T21:38:39.283Z,15.53
2019-04-21T21:41:01.241Z,15.90
2019-04-21T21:43:24.802Z,13.40
2019-04-21T21:45:56.087Z,13.97
2019-04-21T21:48:39.487Z,14.17
2019-04-21T21:51:05.809Z,14.57
2019-04-21T21:53:28.928Z,16.07
2019-04-21T21:55:58.600Z,11.27
2019-04-21T21:58:33.859Z,11.37
2019-04-21T22:01:02.978Z,11.70
2019-04-21T22:03:37.418Z,12.13
2019-04-21T22:06:07.831Z,11.00
2019-04-21T22:08:34.260Z,10.50
2019-04-21T22:11:05.303Z,11.10
2019-04-21T22:13:44.763Z,11.60
2019-04-21T22:16:10.685Z,11.00
2019-04-21T22:19:03.604Z,11.60
2019-04-21T22:21:18.791Z,12.03
2019-04-21T22:23:51.322Z,11.03
2019-04-21T22:26:11.435Z,10.00
2019-04-21T22:28:40.822Z,14.60
2019-04-21T22:31:15.428Z,11.20
2019-04-21T22:33:48.300Z,12.10
2019-04-21T22:36:26.477Z,13.93
2019-04-21T22:39:04.972Z,12.70
2019-04-21T22:41:28.244Z,10.63
2019-04-21T22:43:49.954Z,13.93
2019-04-21T22:46:18.198Z,11.00
2019-04-21T22:48:54.619Z,14.30
2019-04-21T22:51:23.807Z,12.47
2019-04-21T22:53:53.431Z,14.43
2019-04-21T22:56:26.826Z,12.77
2019-04-21T22:58:53.102Z,11.43
2019-04-21T23:01:30.186Z,16.67
2019-04-21T23:04:00.447Z,17.27
2019-04-21T23:06:28.691Z,18.60
2019-04-21T23:08:56.962Z,15.40
2019-04-21T23:11:29.302Z,12.90
2019-04-21T23:14:03.999Z,12.67
2019-04-21T23:16:33.741Z,12.87
2019-04-21T23:19:22.625Z,11.87
2019-04-21T23:21:55.306Z,12.87
2019-04-21T23:24:28.248Z,12.37
2019-04-21T23:26:49.076Z,11.47
2019-04-21T23:29:25.832Z,13.23
2019-04-21T23:31:55.072Z,11.23
2019-04-21T23:34:10.862Z,11.40
2019-04-21T23:36:48.192Z,9.40
2019-04-21T23:39:17.070Z,10.83
2019-04-21T23:41:45.943Z,9.70
2019-04-21T23:44:14.172Z,11.40
2019-04-21T23:46:44.476Z,13.33
2019-04-21T23:49:27.181Z,12.93
2019-04-21T23:51:50.890Z,9.73
2019-04-21T23:54:15.705Z,11.70
2019-04-21T23:56:47.582Z,10.43
2019-04-21T23:59:17.914Z,10.53
